createdAt,value
2022-09-25T00:02:48.508Z,11.00
2022-09-25T00:06:49.677Z,12.00
2022-09-25T00:10:51.192Z,9.63
2022-09-25T00:14:52.792Z,10.03
2022-09-25T00:19:13.991Z,11.00
2022-09-25T00:23:15.173Z,11.17
2022-09-25T00:27:17.672Z,11.83
2022-09-25T00:31:23.779Z,10.70
2022-09-25T00:35:25.296Z,12.00
2022-09-25T00:39:26.512Z,13.20
2022-09-25T00:43:40.319Z,12.43
2022-09-25T00:47:54.055Z,12.53
2022-09-25T00:51:59.038Z,14.00
2022-09-25T00:56:02.790Z,11.40
2022-09-25T01:00:08.016Z,13.10
2022-09-25T01:04:10.829Z,10.83
2022-09-25T01:08:15.120Z,10.57
2022-09-25T01:12:16.410Z,11.13
2022-09-25T01:16:30.599Z,11.47
2022-09-25T01:20:51.800Z,10.83
2022-09-25T01:24:56.772Z,10.43
2022-09-25T01:29:10.837Z,11.80
2022-09-25T01:33:34.425Z,11.27
2022-09-25T01:37:45.160Z,15.10
2022-09-25T01:42:11.233Z,15.93
2022-09-25T01:46:21.843Z,16.70
2022-09-25T01:50:27.037Z,16.90
2022-09-25T01:54:32.022Z,18.50
2022-09-25T01:58:42.559Z,18.80
2022-09-25T02:02:47.640Z,19.07
2022-09-25T02:06:50.958Z,21.10
2022-09-25T02:10:55.998Z,20.00
2022-09-25T02:15:00.966Z,22.60
2022-09-25T02:19:21.090Z,23.13
2022-09-25T02:23:25.541Z,25.07
2022-09-25T02:27:28.546Z,24.80
2022-09-25T02:31:39.814Z,28.43
2022-09-25T02:35:41.700Z,27.27
2022-09-25T02:39:49.719Z,29.03
2022-09-25T02:44:03.828Z,29.47
2022-09-25T02:48:08.889Z,30.43
2022-09-25T02:52:23.105Z,30.23
2022-09-25T02:56:37.661Z,32.07
2022-09-25T03:00:41.247Z,35.13
2022-09-25T03:04:47.469Z,31.53
2022-09-25T03:08:52.372Z,30.90
2022-09-25T03:12:53.570Z,31.40
2022-09-25T03:16:57.317Z,31.77
2022-09-25T03:20:58.798Z,29.13
2022-09-25T03:24:59.951Z,30.33
2022-09-25T03:29:01.654Z,35.20
2022-09-25T03:33:03.090Z,34.97
2022-09-25T03:37:04.270Z,35.33
2022-09-25T03:41:07.530Z,32.23
2022-09-25T03:45:10.901Z,35.87
2022-09-25T03:49:12.190Z,31.50
2022-09-25T03:53:13.361Z,33.80
2022-09-25T03:57:14.553Z,31.80
2022-09-25T04:01:18.616Z,34.20
2022-09-25T04:05:20.609Z,32.40
2022-09-25T04:09:22.708Z,30.70
2022-09-25T04:13:25.456Z,31.33
2022-09-25T04:17:28.146Z,32.87
2022-09-25T04:21:29.319Z,32.70
2022-09-25T04:25:30.638Z,31.43
2022-09-25T04:29:31.848Z,32.57
2022-09-25T04:33:48.337Z,32.50
2022-09-25T04:37:49.703Z,33.23
2022-09-25T04:41:50.803Z,33.80
2022-09-25T04:45:52.090Z,31.43
2022-09-25T04:51:07.801Z,32.13
2022-09-25T04:55:08.998Z,33.90
2022-09-25T04:59:15.023Z,34.83
2022-09-25T05:03:16.372Z,35.67
2022-09-25T05:07:17.734Z,34.77
2022-09-25T05:11:18.840Z,32.73
2022-09-25T05:15:20.035Z,31.73
2022-09-25T05:19:21.129Z,33.63
2022-09-25T05:23:23.220Z,35.50
2022-09-25T05:27:24.417Z,35.13
2022-09-25T05:31:26.213Z,32.83
2022-09-25T05:35:30.338Z,33.93
2022-09-25T05:39:31.517Z,34.00
2022-09-25T05:43:34.157Z,29.10
2022-09-25T05:47:35.305Z,30.77
2022-09-25T05:51:36.514Z,28.83
2022-09-25T05:55:37.700Z,29.00
2022-09-25T05:59:38.908Z,29.53
2022-09-25T06:03:40.295Z,27.90
2022-09-25T06:07:41.412Z,29.57
2022-09-25T06:11:44.408Z,29.07
2022-09-25T06:15:45.641Z,32.30
2022-09-25T06:19:47.184Z,29.33
2022-09-25T06:23:48.780Z,27.80
2022-09-25T06:27:54.293Z,24.90
2022-09-25T06:31:55.485Z,28.80
2022-09-25T06:35:57.084Z,25.57
2022-09-25T06:39:58.281Z,25.20
2022-09-25T06:43:59.742Z,25.20
2022-09-25T06:52:09.841Z,25.43
2022-09-25T06:56:11.045Z,24.07
2022-09-25T07:00:13.165Z,24.33
2022-09-25T07:04:14.402Z,24.20
2022-09-25T07:08:17.295Z,24.50
2022-09-25T07:12:18.529Z,27.37
2022-09-25T07:16:21.846Z,24.07
2022-09-25T07:20:23.079Z,26.20
2022-09-25T07:24:25.499Z,28.33
2022-09-25T07:28:26.703Z,23.43
2022-09-25T07:32:28.514Z,24.73
2022-09-25T07:36:29.709Z,24.50
2022-09-25T07:40:33.263Z,24.50
2022-09-25T07:44:38.262Z,25.37
2022-09-25T07:48:38.101Z,24.80
2022-09-25T07:52:39.274Z,20.97
2022-09-25T07:56:40.370Z,21.83
2022-09-25T08:00:41.561Z,20.13
2022-09-25T08:04:42.776Z,20.20
2022-09-25T08:08:43.954Z,16.93
2022-09-25T08:12:45.358Z,18.93
2022-09-25T08:16:46.832Z,19.40
2022-09-25T08:20:48.009Z,18.27
2022-09-25T08:24:49.197Z,17.07
2022-09-25T08:28:51.393Z,18.40
2022-09-25T08:32:52.569Z,18.67
2022-09-25T08:36:54.447Z,18.50
2022-09-25T08:40:59.497Z,20.37
2022-09-25T08:45:23.341Z,19.73
2022-09-25T08:49:28.320Z,19.47
2022-09-25T08:53:29.509Z,20.30
2022-09-25T08:57:38.644Z,20.17
2022-09-25T09:01:46.365Z,18.50
2022-09-25T09:05:51.854Z,20.00
2022-09-25T09:09:59.944Z,19.80
2022-09-25T09:14:04.941Z,19.77
2022-09-25T09:18:24.012Z,19.83
2022-09-25T09:22:29.006Z,19.63
2022-09-25T09:26:52.389Z,20.80
2022-09-25T09:31:12.862Z,26.40
2022-09-25T09:35:35.627Z,21.27
2022-09-25T09:39:40.980Z,20.30
2022-09-25T09:44:11.516Z,20.40
2022-09-25T09:48:34.619Z,18.87
2022-09-25T09:52:41.602Z,20.40
2022-09-25T09:56:47.101Z,19.30
2022-09-25T10:00:50.099Z,17.70
2022-09-25T10:04:52.597Z,19.40
2022-09-25T10:08:53.757Z,19.10
2022-09-25T10:12:55.355Z,21.07
2022-09-25T10:16:56.840Z,24.87
2022-09-25T10:21:08.162Z,22.07
2022-09-25T10:25:09.483Z,15.90
2022-09-25T10:29:23.480Z,15.30
2022-09-25T10:33:26.772Z,16.33
2022-09-25T10:37:33.483Z,16.10
2022-09-25T10:41:42.798Z,15.67
2022-09-25T10:45:44.594Z,15.33
2022-09-25T10:50:05.934Z,17.67
2022-09-25T10:54:12.970Z,20.27
2022-09-25T10:58:21.103Z,17.20
2022-09-25T11:02:39.438Z,16.73
2022-09-25T11:06:47.358Z,19.57
2022-09-25T11:10:52.260Z,15.17
2022-09-25T11:15:00.904Z,20.00
2022-09-25T11:19:08.897Z,20.30
2022-09-25T11:23:22.535Z,15.50
2022-09-25T11:27:33.328Z,20.37
2022-09-25T11:31:44.608Z,20.13
2022-09-25T11:36:01.998Z,18.03
2022-09-25T11:40:38.262Z,19.00
2022-09-25T11:44:54.069Z,18.60
2022-09-25T11:49:02.070Z,17.13
2022-09-25T11:53:31.969Z,14.77
2022-09-25T11:57:42.566Z,17.93
2022-09-25T12:01:47.508Z,16.13
2022-09-25T12:06:12.324Z,14.80
2022-09-25T12:10:44.413Z,13.03
2022-09-25T12:15:09.237Z,15.53
2022-09-25T12:19:32.363Z,13.23
2022-09-25T12:23:49.492Z,11.53
2022-09-25T12:27:55.311Z,12.17
2022-09-25T12:32:19.842Z,10.47
2022-09-25T12:36:24.807Z,15.00
2022-09-25T12:40:34.929Z,10.27
2022-09-25T12:44:43.525Z,10.57
2022-09-25T12:49:06.459Z,9.03
2022-09-25T12:53:26.784Z,13.03
2022-09-25T12:57:37.988Z,14.00
2022-09-25T13:02:02.681Z,8.77
2022-09-25T13:06:10.745Z,10.20
2022-09-25T13:10:18.754Z,11.03
2022-09-25T13:14:41.917Z,10.00
2022-09-25T13:18:48.228Z,9.40
2022-09-25T13:22:49.422Z,9.57
2022-09-25T13:26:54.399Z,8.30
2022-09-25T13:31:09.745Z,7.07
2022-09-25T13:35:19.242Z,11.70
2022-09-25T13:39:58.373Z,7.67
2022-09-25T13:44:38.604Z,10.27
2022-09-25T13:48:39.884Z,8.70
2022-09-25T13:52:44.867Z,8.10
2022-09-25T13:56:52.240Z,9.83
2022-09-25T14:00:58.704Z,6.60
2022-09-25T14:05:00.104Z,10.13
2022-09-25T14:09:10.668Z,7.27
2022-09-25T14:13:13.888Z,6.73
2022-09-25T14:17:15.979Z,7.70
2022-09-25T14:21:19.487Z,5.23
2022-09-25T14:25:27.573Z,8.20
2022-09-25T14:29:32.765Z,12.37
2022-09-25T14:33:57.531Z,23.07
2022-09-25T14:38:20.885Z,9.23
2022-09-25T14:42:43.347Z,10.07
2022-09-25T14:46:49.369Z,7.60
2022-09-25T14:50:56.878Z,11.43
2022-09-25T14:54:59.541Z,11.30
2022-09-25T14:59:05.867Z,14.10
2022-09-25T15:03:10.833Z,8.53
2022-09-25T15:07:17.717Z,9.63
2022-09-25T15:11:20.698Z,5.87
2022-09-25T15:15:21.916Z,8.00
2022-09-25T15:19:29.905Z,6.93
2022-09-25T15:23:34.925Z,6.80
2022-09-25T15:27:38.542Z,9.13
2022-09-25T15:31:40.608Z,9.47
2022-09-25T15:35:41.718Z,9.67
2022-09-25T15:39:43.824Z,7.77
2022-09-25T15:43:44.993Z,8.80
2022-09-25T15:47:50.049Z,8.37
2022-09-25T15:51:59.531Z,6.83
2022-09-25T15:56:18.889Z,8.20
2022-09-25T16:00:41.560Z,7.47
2022-09-25T16:04:49.777Z,8.03
2022-09-25T16:08:55.506Z,6.77
2022-09-25T16:12:56.800Z,12.50
2022-09-25T16:16:59.673Z,10.87
2022-09-25T16:21:22.895Z,6.57
2022-09-25T16:25:26.952Z,7.77
2022-09-25T16:29:31.448Z,8.63
2022-09-25T16:33:39.190Z,8.57
2022-09-25T16:37:40.561Z,9.30
2022-09-25T16:41:45.544Z,9.30
2022-09-25T16:45:58.711Z,9.53
2022-09-25T16:49:59.846Z,11.93
2022-09-25T16:54:00.936Z,7.10
2022-09-25T16:58:04.674Z,8.10
2022-09-25T17:02:09.770Z,7.13
2022-09-25T17:06:11.075Z,4.53
2022-09-25T17:10:15.273Z,5.53
2022-09-25T17:14:22.507Z,7.10
2022-09-25T17:18:23.680Z,7.60
2022-09-25T17:22:26.774Z,7.80
2022-09-25T17:26:27.943Z,10.20
2022-09-25T17:30:29.294Z,7.17
2022-09-25T17:34:30.875Z,5.33
2022-09-25T17:38:33.356Z,6.03
2022-09-25T17:42:34.882Z,8.03
2022-09-25T17:46:36.832Z,9.53
2022-09-25T17:50:41.869Z,8.33
2022-09-25T17:54:43.823Z,5.93
2022-09-25T17:58:45.465Z,4.50
2022-09-25T18:02:48.095Z,8.63
2022-09-25T18:06:51.566Z,8.10
2022-09-25T18:10:55.092Z,8.00
2022-09-25T18:15:00.879Z,7.10
2022-09-25T18:19:23.224Z,5.90
2022-09-25T18:23:24.662Z,5.50
2022-09-25T18:27:36.390Z,7.10
2022-09-25T18:31:44.238Z,7.90
2022-09-25T18:35:50.836Z,6.60
2022-09-25T18:39:52.624Z,8.93
2022-09-25T18:43:55.694Z,9.93
2022-09-25T18:47:59.243Z,10.90
2022-09-25T18:52:04.191Z,5.67
2022-09-25T18:56:07.804Z,8.50
2022-09-25T19:00:10.893Z,6.40
2022-09-25T19:04:17.816Z,6.50
2022-09-25T19:08:19.476Z,9.37
2022-09-25T19:12:25.616Z,8.25
2022-09-25T19:16:26.973Z,6.37
2022-09-25T19:20:28.282Z,8.47
2022-09-25T19:24:34.483Z,9.53
2022-09-25T19:28:37.807Z,5.77
2022-09-25T19:32:39.436Z,6.10
2022-09-25T19:36:42.962Z,10.10
2022-09-25T19:40:44.473Z,8.93
2022-09-25T19:44:46.673Z,22.00
2022-09-25T19:48:48.634Z,10.93
2022-09-25T19:52:54.245Z,15.00
2022-09-25T19:56:56.453Z,12.03
2022-09-25T20:01:01.139Z,7.10
2022-09-25T20:09:07.170Z,9.10
2022-09-25T20:13:14.368Z,6.83
2022-09-25T20:17:16.108Z,8.07
2022-09-25T20:21:20.422Z,6.00
2022-09-25T20:25:34.322Z,8.40
2022-09-25T20:29:35.457Z,9.83
2022-09-25T20:33:37.272Z,5.40
2022-09-25T20:37:39.526Z,9.40
2022-09-25T20:41:41.328Z,11.50
2022-09-25T20:45:42.751Z,9.43
2022-09-25T20:49:44.171Z,7.57
2022-09-25T20:53:50.248Z,6.90
2022-09-25T20:57:51.423Z,6.40
2022-09-25T21:01:58.508Z,6.23
2022-09-25T21:06:02.088Z,8.60
2022-09-25T21:10:04.005Z,10.10
2022-09-25T21:14:05.302Z,9.87
2022-09-25T21:18:06.619Z,9.00
2022-09-25T21:22:08.757Z,8.90
2022-09-25T21:26:13.057Z,8.83
2022-09-25T21:30:14.725Z,9.83
2022-09-25T21:34:16.429Z,8.80
2022-09-25T21:38:17.633Z,10.27
2022-09-25T21:42:18.802Z,9.63
2022-09-25T21:46:20.224Z,9.37
2022-09-25T21:50:21.380Z,8.97
2022-09-25T21:54:22.575Z,7.03
2022-09-25T21:58:23.826Z,9.23
2022-09-25T22:02:25.247Z,8.90
2022-09-25T22:06:29.149Z,11.53
2022-09-25T22:10:34.085Z,9.50
2022-09-25T22:14:36.833Z,9.27
2022-09-25T22:18:47.858Z,7.37
2022-09-25T22:22:52.317Z,9.03
2022-09-25T22:26:57.987Z,10.23
2022-09-25T22:31:09.085Z,9.43
2022-09-25T22:35:10.301Z,9.40
2022-09-25T22:39:13.977Z,10.33
2022-09-25T22:43:15.258Z,7.40
2022-09-25T22:47:16.441Z,9.57
2022-09-25T22:51:20.532Z,10.10
2022-09-25T22:55:24.230Z,10.30
2022-09-25T22:59:25.395Z,11.50
2022-09-25T23:03:26.540Z,9.23
2022-09-25T23:07:27.759Z,11.90
2022-09-25T23:11:29.466Z,9.63
2022-09-25T23:15:31.839Z,9.03
2022-09-25T23:19:33.020Z,12.90
2022-09-25T23:23:34.185Z,8.73
2022-09-25T23:27:35.395Z,9.67
2022-09-25T23:31:36.680Z,9.30
2022-09-25T23:35:37.866Z,8.83
2022-09-25T23:39:39.972Z,10.23
2022-09-25T23:43:41.672Z,11.17
2022-09-25T23:47:42.859Z,11.53
2022-09-25T23:51:47.421Z,11.77
2022-09-25T23:55:49.029Z,8.77
2022-09-25T23:59:50.572Z,10.77
